PWSweather.com
Personal Weather Stations
Station Observations
WAIROAHB
Wairoa, Northern Hawkes Bay -NZ 4108

WairoaNorthern Hawkes Bay -NZ 4108

Lat: -39.04516934, Lon: 177.4263989

Elevation: 156

Station Type: WS3083

http://wairoa.net/weather/index.htm

High Low Average
Temperature 82.0°F27.8°C 56.3°F13.5°C 67.4°F19.7°C
Dew Point 61.3°F16.3°C 51.7°F10.9°C 56.3°F13.5°C
Winds 6.9 mph 11.1 kmh Calm Calm 1.0 mph SE1.6 kmh SE
Wind Gusts 9.2 mph14.8 kmh -- 4.0 mph6.4 kmh
Humidity 99% 36% 72%
Pressure 30.03 in1016.9 mb 29.86 in1011.2 mb -
Precipitation 0.00 in0.0 mm - -
Hour Temp Dew Point Humidity Winds Wind Gusts Pressure Precip Precip Rate Daily Precip Total
12:00 AM 57.6°F14.2°C 57.3°F14.1°C 99% Calm Calm 1.6 mph2.6 kmh 29.88 in1011.9 mb 0.00 in0.0 mm 0.00 in0.0 mm 0.00 in0.0 mm
12:10 AM 57.2°F14.0°C 56.9°F13.8°C 99% Calm Calm 0.7 mph1.1 kmh 29.88 in1011.9 mb 0.00 in0.0 mm 0.00 in0.0 mm 0.00 in0.0 mm
12:20 AM 56.8°F13.8°C 56.6°F13.7°C 99% Calm Calm 0.7 mph1.1 kmh 29.87 in1011.5 mb 0.00 in0.0 mm 0.00 in0.0 mm 0.00 in0.0 mm
12:30 AM 57.0°F13.9°C 56.8°F13.8°C 99% Calm Calm 1.6 mph2.6 kmh 29.88 in1011.9 mb 0.00 in0.0 mm 0.00 in0.0 mm 0.00 in0.0 mm
12:40 AM 57.2°F14.0°C 56.9°F13.8°C 99% Calm Calm 0.7 mph1.1 kmh 29.87 in1011.5 mb 0.00 in0.0 mm 0.00 in0.0 mm 0.00 in0.0 mm
12:50 AM 57.2°F14.0°C 56.9°F13.8°C 99% Calm Calm 1.6 mph2.6 kmh 29.88 in1011.9 mb 0.00 in0.0 mm 0.00 in0.0 mm 0.00 in0.0 mm
01:00 AM 57.2°F14.0°C 56.9°F13.8°C 99% 0.7 mph NW1.1 kmh NW 3.1 mph5.0 kmh 29.88 in1011.9 mb 0.00 in0.0 mm 0.00 in0.0 mm 0.00 in0.0 mm
01:10 AM 57.2°F14.0°C 56.9°F13.8°C 99% Calm Calm 2.2 mph3.5 kmh 29.87 in1011.5 mb 0.00 in0.0 mm 0.00 in0.0 mm 0.00 in0.0 mm
01:20 AM 57.4°F14.1°C 57.1°F13.9°C 99% Calm Calm 2.2 mph3.5 kmh 29.87 in1011.5 mb 0.00 in0.0 mm 0.00 in0.0 mm 0.00 in0.0 mm
01:30 AM 57.4°F14.1°C 57.1°F13.9°C 99% 0.7 mph NW1.1 kmh NW 3.1 mph5.0 kmh 29.86 in1011.2 mb 0.00 in0.0 mm 0.00 in0.0 mm 0.00 in0.0 mm
01:40 AM 57.4°F14.1°C 57.1°F13.9°C 99% 1.6 mph NW2.6 kmh NW 3.8 mph6.1 kmh 29.86 in1011.2 mb 0.00 in0.0 mm 0.00 in0.0 mm 0.00 in0.0 mm
01:50 AM 57.4°F14.1°C 57.1°F13.9°C 99% 1.6 mph NW2.6 kmh NW 3.8 mph6.1 kmh 29.86 in1011.2 mb 0.00 in0.0 mm 0.00 in0.0 mm 0.00 in0.0 mm
02:00 AM 57.4°F14.1°C 57.1°F13.9°C 99% 1.6 mph NW2.6 kmh NW 5.4 mph8.7 kmh 29.87 in1011.5 mb 0.00 in0.0 mm 0.00 in0.0 mm 0.00 in0.0 mm
02:10 AM 57.4°F14.1°C 57.1°F13.9°C 99% 0.7 mph WNW1.1 kmh WNW 3.8 mph6.1 kmh 29.87 in1011.5 mb 0.00 in0.0 mm 0.00 in0.0 mm 0.00 in0.0 mm
02:20 AM 57.4°F14.1°C 57.1°F13.9°C 99% 1.6 mph NNW2.6 kmh NNW 3.8 mph6.1 kmh 29.86 in1011.2 mb 0.00 in0.0 mm 0.00 in0.0 mm 0.00 in0.0 mm
02:30 AM 57.4°F14.1°C 57.1°F13.9°C 99% 0.7 mph NNW1.1 kmh NNW 3.1 mph5.0 kmh 29.88 in1011.9 mb 0.00 in0.0 mm 0.00 in0.0 mm 0.00 in0.0 mm
02:40 AM 57.4°F14.1°C 57.1°F13.9°C 99% 1.6 mph NW2.6 kmh NW 3.1 mph5.0 kmh 29.88 in1011.9 mb 0.00 in0.0 mm 0.00 in0.0 mm 0.00 in0.0 mm
02:50 AM 57.4°F14.1°C 57.1°F13.9°C 99% 1.6 mph NNW2.6 kmh NNW 3.1 mph5.0 kmh 29.88 in1011.9 mb 0.00 in0.0 mm 0.00 in0.0 mm 0.00 in0.0 mm
03:00 AM 57.4°F14.1°C 57.1°F13.9°C 99% Calm Calm 3.8 mph6.1 kmh 29.87 in1011.5 mb 0.00 in0.0 mm 0.00 in0.0 mm 0.00 in0.0 mm
03:10 AM 57.2°F14.0°C 56.9°F13.8°C 99% Calm Calm 3.1 mph5.0 kmh 29.87 in1011.5 mb 0.00 in0.0 mm 0.00 in0.0 mm 0.00 in0.0 mm
03:20 AM 57.0°F13.9°C 56.8°F13.8°C 99% 1.6 mph NW2.6 kmh NW 2.2 mph3.5 kmh 29.87 in1011.5 mb 0.00 in0.0 mm 0.00 in0.0 mm 0.00 in0.0 mm
03:30 AM 56.8°F13.8°C 56.6°F13.7°C 99% 1.6 mph NW2.6 kmh NW 3.8 mph6.1 kmh 29.87 in1011.5 mb 0.00 in0.0 mm 0.00 in0.0 mm 0.00 in0.0 mm
03:40 AM 56.5°F13.6°C 56.2°F13.4°C 99% Calm Calm 3.1 mph5.0 kmh 29.88 in1011.9 mb 0.00 in0.0 mm 0.00 in0.0 mm 0.00 in0.0 mm
03:50 AM 56.5°F13.6°C 56.2°F13.4°C 99% 0.7 mph WNW1.1 kmh WNW 3.1 mph5.0 kmh 29.88 in1011.9 mb 0.00 in0.0 mm 0.00 in0.0 mm 0.00 in0.0 mm
04:00 AM 56.5°F13.6°C 56.2°F13.4°C 99% Calm Calm 3.1 mph5.0 kmh 29.89 in1012.2 mb 0.00 in0.0 mm 0.00 in0.0 mm 0.00 in0.0 mm
04:10 AM 56.3°F13.5°C 56.0°F13.3°C 99% Calm Calm 2.2 mph3.5 kmh 29.89 in1012.2 mb 0.00 in0.0 mm 0.00 in0.0 mm 0.00 in0.0 mm
04:20 AM 56.5°F13.6°C 56.2°F13.4°C 99% Calm Calm 2.2 mph3.5 kmh 29.89 in1012.2 mb 0.00 in0.0 mm 0.00 in0.0 mm 0.00 in0.0 mm
04:30 AM 56.5°F13.6°C 56.2°F13.4°C 99% 1.6 mph NW2.6 kmh NW 3.8 mph6.1 kmh 29.90 in1012.5 mb 0.00 in0.0 mm 0.00 in0.0 mm 0.00 in0.0 mm
04:40 AM 56.5°F13.6°C 56.2°F13.4°C 99% 1.6 mph NW2.6 kmh NW 3.8 mph6.1 kmh 29.90 in1012.5 mb 0.00 in0.0 mm 0.00 in0.0 mm 0.00 in0.0 mm
04:50 AM 56.8°F13.8°C 56.6°F13.7°C 99% Calm Calm 3.1 mph5.0 kmh 29.90 in1012.5 mb 0.00 in0.0 mm 0.00 in0.0 mm 0.00 in0.0 mm
05:00 AM 56.8°F13.8°C 56.6°F13.7°C 99% 1.6 mph NNW2.6 kmh NNW 3.1 mph5.0 kmh 29.91 in1012.9 mb 0.00 in0.0 mm 0.00 in0.0 mm 0.00 in0.0 mm
05:10 AM 56.8°F13.8°C 56.6°F13.7°C 99% 0.7 mph NW1.1 kmh NW 3.8 mph6.1 kmh 29.91 in1012.9 mb 0.00 in0.0 mm 0.00 in0.0 mm 0.00 in0.0 mm
05:20 AM 57.2°F14.0°C 56.9°F13.8°C 99% 0.7 mph NNW1.1 kmh NNW 3.1 mph5.0 kmh 29.91 in1012.9 mb 0.00 in0.0 mm 0.00 in0.0 mm 0.00 in0.0 mm
05:30 AM 57.4°F14.1°C 57.1°F13.9°C 99% 0.7 mph NW1.1 kmh NW 2.2 mph3.5 kmh 29.91 in1012.9 mb 0.00 in0.0 mm 0.00 in0.0 mm 0.00 in0.0 mm
05:40 AM 57.7°F14.3°C 57.5°F14.2°C 99% 0.7 mph NNW1.1 kmh NNW 3.8 mph6.1 kmh 29.91 in1012.9 mb 0.00 in0.0 mm 0.00 in0.0 mm 0.00 in0.0 mm
05:50 AM 57.9°F14.4°C 57.7°F14.3°C 99% 0.7 mph NW1.1 kmh NW 3.8 mph6.1 kmh 29.92 in1013.2 mb 0.00 in0.0 mm 0.00 in0.0 mm 0.00 in0.0 mm
06:00 AM 58.3°F14.6°C 58.0°F14.4°C 99% 1.6 mph NW2.6 kmh NW 3.8 mph6.1 kmh 29.92 in1013.2 mb 0.00 in0.0 mm 0.00 in0.0 mm 0.00 in0.0 mm
06:10 AM 58.5°F14.7°C 58.2°F14.6°C 99% 1.6 mph NW2.6 kmh NW 4.5 mph7.2 kmh 29.93 in1013.5 mb 0.00 in0.0 mm 0.00 in0.0 mm 0.00 in0.0 mm
06:20 AM 59.2°F15.1°C 58.9°F14.9°C 99% 1.6 mph NNW2.6 kmh NNW 5.4 mph8.7 kmh 29.93 in1013.5 mb 0.00 in0.0 mm 0.00 in0.0 mm 0.00 in0.0 mm
06:30 AM 60.1°F15.6°C 59.8°F15.4°C 99% 0.7 mph N1.1 kmh N 3.8 mph6.1 kmh 29.93 in1013.5 mb 0.00 in0.0 mm 0.00 in0.0 mm 0.00 in0.0 mm
06:40 AM 60.8°F16.0°C 59.7°F15.4°C 96% 1.6 mph N2.6 kmh N 4.5 mph7.2 kmh 29.93 in1013.5 mb 0.00 in0.0 mm 0.00 in0.0 mm 0.00 in0.0 mm
06:50 AM 61.0°F16.1°C 59.0°F15.0°C 93% 1.6 mph NNW2.6 kmh NNW 6.0 mph9.7 kmh 29.93 in1013.5 mb 0.00 in0.0 mm 0.00 in0.0 mm 0.00 in0.0 mm
07:00 AM 61.7°F16.5°C 59.4°F15.2°C 92% 1.6 mph NNW2.6 kmh NNW 5.4 mph8.7 kmh 29.93 in1013.5 mb 0.00 in0.0 mm 0.00 in0.0 mm 0.00 in0.0 mm
07:10 AM 62.2°F16.8°C 59.3°F15.2°C 90% Calm Calm 4.5 mph7.2 kmh 29.94 in1013.9 mb 0.00 in0.0 mm 0.00 in0.0 mm 0.00 in0.0 mm
07:20 AM 62.8°F17.1°C 59.2°F15.1°C 88% 2.2 mph NW3.5 kmh NW 4.5 mph7.2 kmh 29.94 in1013.9 mb 0.00 in0.0 mm 0.00 in0.0 mm 0.00 in0.0 mm
07:30 AM 63.9°F17.7°C 60.3°F15.7°C 88% 2.2 mph NW3.5 kmh NW 5.4 mph8.7 kmh 29.95 in1014.2 mb 0.00 in0.0 mm 0.00 in0.0 mm 0.00 in0.0 mm
07:40 AM 64.2°F17.9°C 60.0°F15.6°C 86% 0.7 mph NNW1.1 kmh NNW 5.4 mph8.7 kmh 29.95 in1014.2 mb 0.00 in0.0 mm 0.00 in0.0 mm 0.00 in0.0 mm
07:50 AM 64.8°F18.2°C 60.2°F15.7°C 85% Calm Calm 5.4 mph8.7 kmh 29.95 in1014.2 mb 0.00 in0.0 mm 0.00 in0.0 mm 0.00 in0.0 mm
08:00 AM 65.3°F18.5°C 60.0°F15.6°C 83% Calm Calm 3.8 mph6.1 kmh 29.96 in1014.6 mb 0.00 in0.0 mm 0.00 in0.0 mm 0.00 in0.0 mm
08:10 AM 66.2°F19.0°C 60.2°F15.7°C 81% 1.6 mph NW2.6 kmh NW 2.2 mph3.5 kmh 29.96 in1014.6 mb 0.00 in0.0 mm 0.00 in0.0 mm 0.00 in0.0 mm
08:20 AM 68.2°F20.1°C 60.0°F15.6°C 75% 1.6 mph NW2.6 kmh NW 4.5 mph7.2 kmh 29.96 in1014.6 mb 0.00 in0.0 mm 0.00 in0.0 mm 0.00 in0.0 mm
08:30 AM 68.2°F20.1°C 60.0°F15.6°C 75% 1.6 mph NW2.6 kmh NW 3.1 mph5.0 kmh 29.97 in1014.9 mb 0.00 in0.0 mm 0.00 in0.0 mm 0.00 in0.0 mm
08:40 AM 68.2°F20.1°C 60.0°F15.6°C 75% 1.6 mph NW2.6 kmh NW 3.1 mph5.0 kmh 29.97 in1014.9 mb 0.00 in0.0 mm 0.00 in0.0 mm 0.00 in0.0 mm
08:50 AM 73.8°F23.2°C 61.3°F16.3°C 65% 1.6 mph SW2.6 kmh SW 3.8 mph6.1 kmh 29.97 in1014.9 mb 0.00 in0.0 mm 0.00 in0.0 mm 0.00 in0.0 mm
09:00 AM 73.8°F23.2°C 61.3°F16.3°C 65% 1.6 mph SW2.6 kmh SW 3.8 mph6.1 kmh 29.97 in1014.9 mb 0.00 in0.0 mm 0.00 in0.0 mm 0.00 in0.0 mm
09:10 AM 70.9°F21.6°C 59.0°F15.0°C 66% 3.8 mph S6.1 kmh S 6.0 mph9.7 kmh 29.98 in1015.2 mb 0.00 in0.0 mm 0.00 in0.0 mm 0.00 in0.0 mm
09:20 AM 71.4°F21.9°C 58.6°F14.8°C 64% 3.1 mph S5.0 kmh S 6.0 mph9.7 kmh 29.98 in1015.2 mb 0.00 in0.0 mm 0.00 in0.0 mm 0.00 in0.0 mm
09:30 AM 71.6°F22.0°C 57.5°F14.2°C 61% 3.1 mph S5.0 kmh S 5.4 mph8.7 kmh 29.98 in1015.2 mb 0.00 in0.0 mm 0.00 in0.0 mm 0.00 in0.0 mm
09:40 AM 71.6°F22.0°C 57.5°F14.2°C 61% 3.1 mph S5.0 kmh S 5.4 mph8.7 kmh 29.98 in1015.2 mb 0.00 in0.0 mm 0.00 in0.0 mm 0.00 in0.0 mm
09:50 AM 72.7°F22.6°C 53.0°F11.7°C 50% 3.1 mph SSW5.0 kmh SSW 6.0 mph9.7 kmh 29.98 in1015.2 mb 0.00 in0.0 mm 0.00 in0.0 mm 0.00 in0.0 mm
10:00 AM 72.0°F22.2°C 51.8°F11.0°C 49% 3.8 mph S6.1 kmh S 5.4 mph8.7 kmh 29.99 in1015.6 mb 0.00 in0.0 mm 0.00 in0.0 mm 0.00 in0.0 mm
10:10 AM 72.0°F22.2°C 52.9°F11.6°C 51% 4.5 mph S7.2 kmh S 6.9 mph11.1 kmh 29.99 in1015.6 mb 0.00 in0.0 mm 0.00 in0.0 mm 0.00 in0.0 mm
10:20 AM 72.1°F22.3°C 54.1°F12.3°C 53% 2.2 mph S3.5 kmh S 7.6 mph12.2 kmh 29.99 in1015.6 mb 0.00 in0.0 mm 0.00 in0.0 mm 0.00 in0.0 mm
10:30 AM 71.8°F22.1°C 53.2°F11.8°C 52% 3.8 mph S6.1 kmh S 6.9 mph11.1 kmh 29.99 in1015.6 mb 0.00 in0.0 mm 0.00 in0.0 mm 0.00 in0.0 mm
10:40 AM 71.2°F21.8°C 53.8°F12.1°C 54% 3.1 mph S5.0 kmh S 6.9 mph11.1 kmh 29.99 in1015.6 mb 0.00 in0.0 mm 0.00 in0.0 mm 0.00 in0.0 mm
10:50 AM 72.0°F22.2°C 54.9°F12.7°C 55% 2.2 mph S3.5 kmh S 7.6 mph12.2 kmh 29.99 in1015.6 mb 0.00 in0.0 mm 0.00 in0.0 mm 0.00 in0.0 mm
11:00 AM 71.4°F21.9°C 54.9°F12.7°C 56% Calm Calm 7.6 mph12.2 kmh 29.99 in1015.6 mb 0.00 in0.0 mm 0.00 in0.0 mm 0.00 in0.0 mm
11:10 AM 72.1°F22.3°C 55.1°F12.8°C 55% 3.8 mph S6.1 kmh S 6.9 mph11.1 kmh 30.00 in1015.9 mb 0.00 in0.0 mm 0.00 in0.0 mm 0.00 in0.0 mm
11:20 AM 73.4°F23.0°C 56.3°F13.5°C 55% 0.7 mph SSE1.1 kmh SSE 6.9 mph11.1 kmh 29.99 in1015.6 mb 0.00 in0.0 mm 0.00 in0.0 mm 0.00 in0.0 mm
11:30 AM 73.2°F22.9°C 55.1°F12.8°C 53% 3.1 mph S5.0 kmh S 6.9 mph11.1 kmh 29.99 in1015.6 mb 0.00 in0.0 mm 0.00 in0.0 mm 0.00 in0.0 mm
11:40 AM 72.5°F22.5°C 55.4°F13.0°C 55% 3.8 mph S6.1 kmh S 6.0 mph9.7 kmh 29.99 in1015.6 mb 0.00 in0.0 mm 0.00 in0.0 mm 0.00 in0.0 mm
11:50 AM 72.7°F22.6°C 55.6°F13.1°C 55% 4.5 mph SSW7.2 kmh SSW 8.3 mph13.4 kmh 29.99 in1015.6 mb 0.00 in0.0 mm 0.00 in0.0 mm 0.00 in0.0 mm
12:00 PM 72.7°F22.6°C 55.6°F13.1°C 55% 3.1 mph S5.0 kmh S 7.6 mph12.2 kmh 29.99 in1015.6 mb 0.00 in0.0 mm 0.00 in0.0 mm 0.00 in0.0 mm
12:10 PM 73.8°F23.2°C 56.6°F13.7°C 55% 3.8 mph S6.1 kmh S 7.6 mph12.2 kmh 29.99 in1015.6 mb 0.00 in0.0 mm 0.00 in0.0 mm 0.00 in0.0 mm
12:20 PM 73.9°F23.3°C 54.7°F12.6°C 51% 3.1 mph S5.0 kmh S 7.6 mph12.2 kmh 29.99 in1015.6 mb 0.00 in0.0 mm 0.00 in0.0 mm 0.00 in0.0 mm
12:30 PM 74.1°F23.4°C 52.6°F11.4°C 47% 3.1 mph S5.0 kmh S 9.2 mph14.8 kmh 29.99 in1015.6 mb 0.00 in0.0 mm 0.00 in0.0 mm 0.00 in0.0 mm
12:40 PM 75.0°F23.9°C 52.9°F11.6°C 46% 1.6 mph S2.6 kmh S 7.6 mph12.2 kmh 29.99 in1015.6 mb 0.00 in0.0 mm 0.00 in0.0 mm 0.00 in0.0 mm
12:50 PM 74.8°F23.8°C 53.9°F12.2°C 48% 4.5 mph SSE7.2 kmh SSE 9.2 mph14.8 kmh 29.99 in1015.6 mb 0.00 in0.0 mm 0.00 in0.0 mm 0.00 in0.0 mm
01:00 PM 74.3°F23.5°C 53.9°F12.2°C 49% 1.6 mph S2.6 kmh S 7.6 mph12.2 kmh 29.99 in1015.6 mb 0.00 in0.0 mm 0.00 in0.0 mm 0.00 in0.0 mm
01:10 PM 75.2°F24.0°C 54.8°F12.7°C 49% 2.2 mph S3.5 kmh S 7.6 mph12.2 kmh 29.99 in1015.6 mb 0.00 in0.0 mm 0.00 in0.0 mm 0.00 in0.0 mm
01:20 PM 75.9°F24.4°C 54.3°F12.4°C 47% 0.7 mph SSE1.1 kmh SSE 6.0 mph9.7 kmh 29.99 in1015.6 mb 0.00 in0.0 mm 0.00 in0.0 mm 0.00 in0.0 mm
01:30 PM 75.6°F24.2°C 55.6°F13.1°C 50% 2.2 mph SSE3.5 kmh SSE 6.9 mph11.1 kmh 29.99 in1015.6 mb 0.00 in0.0 mm 0.00 in0.0 mm 0.00 in0.0 mm
01:40 PM 75.4°F24.1°C 53.8°F12.1°C 47% 6.9 mph S11.1 kmh S 8.3 mph13.4 kmh 30.00 in1015.9 mb 0.00 in0.0 mm 0.00 in0.0 mm 0.00 in0.0 mm
01:50 PM 75.2°F24.0°C 53.6°F12.0°C 47% 0.7 mph S1.1 kmh S 7.6 mph12.2 kmh 29.99 in1015.6 mb 0.00 in0.0 mm 0.00 in0.0 mm 0.00 in0.0 mm
02:00 PM 76.5°F24.7°C 53.6°F12.0°C 45% 3.8 mph S6.1 kmh S 7.6 mph12.2 kmh 29.99 in1015.6 mb 0.00 in0.0 mm 0.00 in0.0 mm 0.00 in0.0 mm
02:10 PM 75.7°F24.3°C 54.1°F12.3°C 47% 3.8 mph S6.1 kmh S 6.9 mph11.1 kmh 29.99 in1015.6 mb 0.00 in0.0 mm 0.00 in0.0 mm 0.00 in0.0 mm
02:20 PM 76.5°F24.7°C 55.3°F12.9°C 48% Calm Calm 7.6 mph12.2 kmh 29.99 in1015.6 mb 0.00 in0.0 mm 0.00 in0.0 mm 0.00 in0.0 mm
02:30 PM 75.9°F24.4°C 53.7°F12.1°C 46% 2.2 mph S3.5 kmh S 6.9 mph11.1 kmh 29.99 in1015.6 mb 0.00 in0.0 mm 0.00 in0.0 mm 0.00 in0.0 mm
02:40 PM 77.7°F25.4°C 54.1°F12.3°C 44% 3.1 mph S5.0 kmh S 6.9 mph11.1 kmh 29.99 in1015.6 mb 0.00 in0.0 mm 0.00 in0.0 mm 0.00 in0.0 mm
02:50 PM 78.4°F25.8°C 55.4°F13.0°C 45% 3.8 mph SSE6.1 kmh SSE 7.6 mph12.2 kmh 29.99 in1015.6 mb 0.00 in0.0 mm 0.00 in0.0 mm 0.00 in0.0 mm
03:00 PM 79.5°F26.4°C 55.7°F13.2°C 44% 0.7 mph SSE1.1 kmh SSE 7.6 mph12.2 kmh 29.99 in1015.6 mb 0.00 in0.0 mm 0.00 in0.0 mm 0.00 in0.0 mm
03:10 PM 78.3°F25.7°C 54.6°F12.6°C 44% 1.6 mph SSE2.6 kmh SSE 6.0 mph9.7 kmh 29.99 in1015.6 mb 0.00 in0.0 mm 0.00 in0.0 mm 0.00 in0.0 mm
03:20 PM 78.1°F25.6°C 53.8°F12.1°C 43% Calm Calm 7.6 mph12.2 kmh 29.99 in1015.6 mb 0.00 in0.0 mm 0.00 in0.0 mm 0.00 in0.0 mm
03:30 PM 78.6°F25.9°C 54.3°F12.4°C 43% 0.7 mph S1.1 kmh S 7.6 mph12.2 kmh 29.99 in1015.6 mb 0.00 in0.0 mm 0.00 in0.0 mm 0.00 in0.0 mm
03:40 PM 79.5°F26.4°C 55.1°F12.8°C 43% 0.7 mph SE1.1 kmh SE 3.8 mph6.1 kmh 29.99 in1015.6 mb 0.00 in0.0 mm 0.00 in0.0 mm 0.00 in0.0 mm
03:50 PM 77.9°F25.5°C 53.6°F12.0°C 43% 1.6 mph S2.6 kmh S 7.6 mph12.2 kmh 29.99 in1015.6 mb 0.00 in0.0 mm 0.00 in0.0 mm 0.00 in0.0 mm
04:00 PM 78.4°F25.8°C 54.1°F12.3°C 43% 0.7 mph SE1.1 kmh SE 6.0 mph9.7 kmh 29.99 in1015.6 mb 0.00 in0.0 mm 0.00 in0.0 mm 0.00 in0.0 mm
04:10 PM 79.0°F26.1°C 53.3°F11.8°C 41% Calm Calm 6.0 mph9.7 kmh 29.99 in1015.6 mb 0.00 in0.0 mm 0.00 in0.0 mm 0.00 in0.0 mm
04:20 PM 79.5°F26.4°C 54.5°F12.5°C 42% Calm Calm 5.4 mph8.7 kmh 30.00 in1015.9 mb 0.00 in0.0 mm 0.00 in0.0 mm 0.00 in0.0 mm
04:30 PM 80.2°F26.8°C 55.1°F12.8°C 42% Calm Calm 4.5 mph7.2 kmh 29.99 in1015.6 mb 0.00 in0.0 mm 0.00 in0.0 mm 0.00 in0.0 mm
04:40 PM 79.9°F26.6°C 55.4°F13.0°C 43% 1.6 mph SSE2.6 kmh SSE 5.4 mph8.7 kmh 29.99 in1015.6 mb 0.00 in0.0 mm 0.00 in0.0 mm 0.00 in0.0 mm
04:50 PM 79.5°F26.4°C 54.5°F12.5°C 42% Calm Calm 4.5 mph7.2 kmh 29.98 in1015.2 mb 0.00 in0.0 mm 0.00 in0.0 mm 0.00 in0.0 mm
05:00 PM 79.2°F26.2°C 53.5°F11.9°C 41% 0.7 mph SSE1.1 kmh SSE 6.0 mph9.7 kmh 29.99 in1015.6 mb 0.00 in0.0 mm 0.00 in0.0 mm 0.00 in0.0 mm
05:10 PM 80.8°F27.1°C 54.2°F12.3°C 40% Calm Calm 3.8 mph6.1 kmh 29.99 in1015.6 mb 0.00 in0.0 mm 0.00 in0.0 mm 0.00 in0.0 mm
05:20 PM 80.8°F27.1°C 54.2°F12.3°C 40% Calm Calm 3.8 mph6.1 kmh 29.98 in1015.2 mb 0.00 in0.0 mm 0.00 in0.0 mm 0.00 in0.0 mm
05:30 PM 82.0°F27.8°C 52.5°F11.4°C 36% Calm Calm 3.8 mph6.1 kmh 29.99 in1015.6 mb 0.00 in0.0 mm 0.00 in0.0 mm 0.00 in0.0 mm
05:40 PM 81.9°F27.7°C 54.5°F12.5°C 39% Calm Calm 1.6 mph2.6 kmh 29.99 in1015.6 mb 0.00 in0.0 mm 0.00 in0.0 mm 0.00 in0.0 mm
05:50 PM 80.4°F26.9°C 54.6°F12.6°C 41% Calm Calm 3.1 mph5.0 kmh 29.99 in1015.6 mb 0.00 in0.0 mm 0.00 in0.0 mm 0.00 in0.0 mm
06:00 PM 80.1°F26.7°C 53.6°F12.0°C 40% Calm Calm 3.1 mph5.0 kmh 30.00 in1015.9 mb 0.00 in0.0 mm 0.00 in0.0 mm 0.00 in0.0 mm
06:10 PM 79.5°F26.4°C 54.5°F12.5°C 42% Calm Calm 3.1 mph5.0 kmh 29.99 in1015.6 mb 0.00 in0.0 mm 0.00 in0.0 mm 0.00 in0.0 mm
06:20 PM 79.3°F26.3°C 54.3°F12.4°C 42% Calm Calm 0.7 mph1.1 kmh 30.00 in1015.9 mb 0.00 in0.0 mm 0.00 in0.0 mm 0.00 in0.0 mm
06:30 PM 79.7°F26.5°C 52.6°F11.4°C 39% Calm Calm 0.7 mph1.1 kmh 29.99 in1015.6 mb 0.00 in0.0 mm 0.00 in0.0 mm 0.00 in0.0 mm
06:40 PM 81.1°F27.3°C 51.7°F10.9°C 36% Calm Calm 0.7 mph1.1 kmh 30.00 in1015.9 mb 0.00 in0.0 mm 0.00 in0.0 mm 0.00 in0.0 mm
06:50 PM 82.0°F27.8°C 52.5°F11.4°C 36% Calm Calm -- 29.99 in1015.6 mb 0.00 in0.0 mm 0.00 in0.0 mm 0.00 in0.0 mm
07:00 PM 79.3°F26.3°C 54.3°F12.4°C 42% Calm Calm -- 30.00 in1015.9 mb 0.00 in0.0 mm 0.00 in0.0 mm 0.00 in0.0 mm
07:10 PM 74.1°F23.4°C 55.4°F13.0°C 52% Calm Calm -- 30.01 in1016.3 mb 0.00 in0.0 mm 0.00 in0.0 mm 0.00 in0.0 mm
07:20 PM 71.4°F21.9°C 55.9°F13.3°C 58% Calm Calm -- 30.01 in1016.3 mb 0.00 in0.0 mm 0.00 in0.0 mm 0.00 in0.0 mm
07:30 PM 68.7°F20.4°C 56.1°F13.4°C 64% Calm Calm -- 30.00 in1015.9 mb 0.00 in0.0 mm 0.00 in0.0 mm 0.00 in0.0 mm
07:40 PM 67.5°F19.7°C 57.8°F14.3°C 71% Calm Calm -- 30.01 in1016.3 mb 0.00 in0.0 mm 0.00 in0.0 mm 0.00 in0.0 mm
07:50 PM 66.6°F19.2°C 58.0°F14.4°C 74% Calm Calm -- 30.01 in1016.3 mb 0.00 in0.0 mm 0.00 in0.0 mm 0.00 in0.0 mm
08:00 PM 66.4°F19.1°C 57.9°F14.4°C 74% Calm Calm -- 30.01 in1016.3 mb 0.00 in0.0 mm 0.00 in0.0 mm 0.00 in0.0 mm
08:10 PM 66.2°F19.0°C 55.8°F13.2°C 69% Calm Calm -- 30.01 in1016.3 mb 0.00 in0.0 mm 0.00 in0.0 mm 0.00 in0.0 mm
08:20 PM 66.2°F19.0°C 56.9°F13.8°C 72% Calm Calm -- 30.01 in1016.3 mb 0.00 in0.0 mm 0.00 in0.0 mm 0.00 in0.0 mm
08:30 PM 65.8°F18.8°C 57.0°F13.9°C 73% Calm Calm -- 30.02 in1016.6 mb 0.00 in0.0 mm 0.00 in0.0 mm 0.00 in0.0 mm
08:40 PM 65.7°F18.7°C 57.2°F14.0°C 74% Calm Calm -- 30.02 in1016.6 mb 0.00 in0.0 mm 0.00 in0.0 mm 0.00 in0.0 mm
08:50 PM 65.3°F18.5°C 57.2°F14.0°C 75% Calm Calm -- 30.02 in1016.6 mb 0.00 in0.0 mm 0.00 in0.0 mm 0.00 in0.0 mm
09:00 PM 64.6°F18.1°C 56.5°F13.6°C 75% Calm Calm -- 30.02 in1016.6 mb 0.00 in0.0 mm 0.00 in0.0 mm 0.00 in0.0 mm
09:10 PM 64.2°F17.9°C 56.5°F13.6°C 76% Calm Calm -- 30.02 in1016.6 mb 0.00 in0.0 mm 0.00 in0.0 mm 0.00 in0.0 mm
09:20 PM 64.0°F17.8°C 57.1°F13.9°C 78% Calm Calm -- 30.02 in1016.6 mb 0.00 in0.0 mm 0.00 in0.0 mm 0.00 in0.0 mm
09:30 PM 63.7°F17.6°C 57.4°F14.1°C 80% Calm Calm -- 30.02 in1016.6 mb 0.00 in0.0 mm 0.00 in0.0 mm 0.00 in0.0 mm
09:40 PM 63.1°F17.3°C 57.2°F14.0°C 81% Calm Calm -- 30.03 in1016.9 mb 0.00 in0.0 mm 0.00 in0.0 mm 0.00 in0.0 mm
09:50 PM 62.6°F17.0°C 57.0°F13.9°C 82% Calm Calm -- 30.02 in1016.6 mb 0.00 in0.0 mm 0.00 in0.0 mm 0.00 in0.0 mm
10:00 PM 62.2°F16.8°C 57.0°F13.9°C 83% Calm Calm -- 30.02 in1016.6 mb 0.00 in0.0 mm 0.00 in0.0 mm 0.00 in0.0 mm
10:10 PM 62.2°F16.8°C 57.4°F14.1°C 84% Calm Calm -- 30.02 in1016.6 mb 0.00 in0.0 mm 0.00 in0.0 mm 0.00 in0.0 mm
10:20 PM 62.2°F16.8°C 58.0°F14.4°C 86% Calm Calm -- 30.02 in1016.6 mb 0.00 in0.0 mm 0.00 in0.0 mm 0.00 in0.0 mm
10:30 PM 62.1°F16.7°C 57.8°F14.3°C 86% Calm Calm -- 30.02 in1016.6 mb 0.00 in0.0 mm 0.00 in0.0 mm 0.00 in0.0 mm
10:40 PM 61.7°F16.5°C 57.5°F14.2°C 86% Calm Calm -- 30.03 in1016.9 mb 0.00 in0.0 mm 0.00 in0.0 mm 0.00 in0.0 mm
10:50 PM 61.2°F16.2°C 57.0°F13.9°C 86% Calm Calm -- 30.02 in1016.6 mb 0.00 in0.0 mm 0.00 in0.0 mm 0.00 in0.0 mm
11:00 PM 61.0°F16.1°C 56.8°F13.8°C 86% Calm Calm -- 30.02 in1016.6 mb 0.00 in0.0 mm 0.00 in0.0 mm 0.00 in0.0 mm
11:10 PM 61.0°F16.1°C 57.4°F14.1°C 88% Calm Calm -- 30.02 in1016.6 mb 0.00 in0.0 mm 0.00 in0.0 mm 0.00 in0.0 mm
11:20 PM 60.6°F15.9°C 57.4°F14.1°C 89% Calm Calm -- 30.02 in1016.6 mb 0.00 in0.0 mm 0.00 in0.0 mm 0.00 in0.0 mm
11:30 PM 60.3°F15.7°C 57.3°F14.1°C 90% Calm Calm -- 30.02 in1016.6 mb 0.00 in0.0 mm 0.00 in0.0 mm 0.00 in0.0 mm
11:40 PM 59.9°F15.5°C 57.0°F13.9°C 90% Calm Calm -- 30.02 in1016.6 mb 0.00 in0.0 mm 0.00 in0.0 mm 0.00 in0.0 mm
11:50 PM 59.7°F15.4°C 57.4°F14.1°C 92% Calm Calm -- 30.01 in1016.3 mb 0.00 in0.0 mm 0.00 in0.0 mm 0.00 in0.0 mm